M I D A S
Marine Information and Data Acquisition System
Tripno 1665 of the Zeeleeuw from 2009-03-26 07:33:00 to 2009-03-26 15:56:00
Back to CruiseResearch ActivitiesStationsMapUnderway DataData graphs

EquipmentUnitsComment
TimeDGPSUTC
LatitudeDGPSDM.mWGS84
LongitudeDGPSDM.mWGS84
TemperatureSBE03/SBE38deg celciusITS90
ConductivitySBE21S/mITS90
SalinitySBE21 Practical Salinity Units
ChlorophylAChelsea fluorimeterg/lCalibrated in Aceton
Missing or incorrect values are displayed as -999
Sea surface data collected by the RV Zeeleeuw from 2009-03-26 07:33:22 to 2009-03-26 15:56:01
Time Latitude Longitude Temperature Conductivity Salinity ChlorophylA
2009-03-26 07:34:27 51°13.683 2°55.892 -999 0.115585 0.681002 -0.861272
2009-03-26 07:35:27 51°13.697 2°55.81 -999 0.115585 0.681146 -0.826448
2009-03-26 07:36:27 51°13.7 2°55.764 -999 0.115585 0.681317 -0.791624
2009-03-26 07:37:27 51°13.705 2°55.757 -999 0.115585 0.681344 -0.826448
2009-03-26 07:38:26 51°13.712 2°55.744 -999 0.115688 0.682148 -0.791624
2009-03-26 07:39:26 51°13.788 2°55.67 -999 0.115688 0.682201 -0.861272
2009-03-26 07:40:23 51°13.899 2°55.582 -999 0.115688 0.682266 -0.826448
2009-03-26 07:41:22 51°14.029 2°55.487 -999 0.115688 0.682411 -0.652328
2009-03-26 07:42:25 51°14.17 2°55.377 -999 0.115688 0.682596 -0.721976
2009-03-26 07:43:25 51°14.284 2°55.227 -999 0.115688 0.682714 -0.652328
2009-03-26 07:44:23 51°14.38 2°55.055 -999 0.115791 0.683586 -0.687152
2009-03-26 07:45:23 51°14.482 2°54.868 -999 0.115791 0.683652 -1.313985
2009-03-26 07:46:23 51°14.592 2°54.665 -999 0.115894 0.684498 -1.244337
2009-03-26 07:47:23 51°14.705 2°54.443 -999 0.115894 0.684525 -1.244337
2009-03-26 07:48:23 51°14.825 2°54.197 -999 0.115894 0.684736 -1.174688
2009-03-26 07:49:23 51°14.942 2°53.935 -999 0.115997 0.685477 -1.139864
2009-03-26 07:50:23 51°15.065 2°53.678 -999 0.115997 0.68565 -0.93092
2009-03-26 07:51:23 51°15.189 2°53.421 -999 0.1161 0.686458 -1.139864
2009-03-26 07:52:23 51°15.314 2°53.165 -999 0.1161 0.686604 -1.070216
2009-03-26 07:53:23 51°15.443 2°52.911 -999 0.1161 0.686817 -0.687152
2009-03-26 07:54:23 51°15.576 2°52.663 -999 0.002075 0.017008 -1.313985
2009-03-26 07:55:23 51°15.709 2°52.411 -999 0.002075 0.016992 -1.313985
2009-03-26 07:56:23 51°15.84 2°52.158 -999 0.001869 0.016005 -1.313985
2009-03-26 07:57:23 51°15.972 2°51.909 -999 0.001766 0.01551 -1.348809
2009-03-26 07:58:23 51°16.105 2°51.667 -999 0.001663 0.015019 -1.348809
2009-03-26 07:59:23 51°16.24 2°51.433 -999 0.00156 0.014529 -1.348809
2009-03-26 08:00:23 51°16.375 2°51.206 -999 0.001457 0.014043 -1.348809
2009-03-26 08:01:23 51°16.543 2°51.084 -999 0.001457 0.014035 -1.348809
2009-03-26 08:02:23 51°16.693 2°51.086 -999 0.001354 0.013551 -1.348809
2009-03-26 08:03:23 51°16.804 2°51.1 -999 0.001354 0.013541 -1.348809
2009-03-26 08:04:23 51°16.859 2°51.09 -999 0.001354 0.013532 -1.348809
2009-03-26 08:05:23 51°16.879 2°51.067 -999 0.001252 0.013052 -1.348809
2009-03-26 08:06:23 51°16.881 2°51.044 -999 0.001252 0.013043 -1.348809
2009-03-26 08:07:23 51°16.877 2°51.028 -999 0.001252 0.013034 -1.348809
2009-03-26 08:08:23 51°16.871 2°51.017 -999 0.001252 0.013023 -1.348809
2009-03-26 08:09:23 51°16.864 2°51.011 -999 0.001149 0.012546 -1.348809
2009-03-26 08:10:23 51°16.856 2°51.007 -999 0.001149 0.012536 -1.348809
2009-03-26 08:11:23 51°16.848 2°51.005 -999 0.001149 0.012526 -1.348809
2009-03-26 08:12:23 51°16.838 2°51.005 -999 0.001149 0.012515 -1.348809
2009-03-26 08:13:23 51°16.828 2°51.005 -999 0.352343 2.272421 0.636162
2009-03-26 08:14:23 51°16.817 2°51.006 -999 3.321545 32.214466 30.550024
2009-03-26 08:15:23 51°16.807 2°51.006 -999 3.304977 32.234695 30.654497
2009-03-26 08:16:23 51°16.797 2°51.006 -999 3.307049 32.301456 31.142033
2009-03-26 08:17:23 51°16.788 2°51.004 -999 3.308603 32.337466 30.793793
2009-03-26 08:18:23 51°16.784 2°50.996 -999 3.306842 32.327113 30.967913
2009-03-26 08:19:23 51°16.785 2°50.981 -999 3.307878 32.328738 31.211682
2009-03-26 08:20:23 51°16.788 2°50.962 -999 3.30736 32.349318 32.291227
2009-03-26 08:21:23 51°16.795 2°50.939 -999 3.300525 32.283058 33.684189
2009-03-26 08:22:23 51°16.819 2°50.926 -999 3.306532 32.353443 32.91806
2009-03-26 08:23:23 51°16.84 2°50.96 -999 3.307257 32.366555 33.962782
2009-03-26 08:24:23 51°16.847 2°51.051 -999 3.302804 32.321736 33.405597
2009-03-26 08:25:23 51°16.871 2°51.164 -999 3.300111 32.29689 33.614541
2009-03-26 08:26:23 51°16.905 2°51.165 -999 3.303943 32.341089 33.057356
2009-03-26 08:27:24 51°16.912 2°51.146 -999 3.306014 32.367943 32.465347
2009-03-26 08:28:23 51°16.907 2°51.135 -999 3.304461 32.343211 30.5152
2009-03-26 08:29:23 51°16.899 2°51.133 -999 3.308085 32.385173 29.749071
2009-03-26 08:30:23 51°16.889 2°51.138 -999 3.304564 32.353956 29.574951
2009-03-26 08:31:23 51°16.875 2°51.145 -999 3.306221 32.373693 29.331183
2009-03-26 08:32:23 51°16.86 2°51.151 -999 3.307153 32.383812 29.435655
2009-03-26 08:33:23 51°16.844 2°51.156 -999 3.300318 32.311367 30.410728
2009-03-26 08:34:23 51°16.829 2°51.162 -999 3.304668 32.35858 29.818719
2009-03-26 08:35:23 51°16.814 2°51.168 -999 3.305082 32.363077 30.16696
2009-03-26 08:36:23 51°16.807 2°51.171 -999 3.306118 32.37432 30.16696
2009-03-26 08:37:23 51°16.817 2°51.165 -999 3.306739 32.376688 31.490274
2009-03-26 08:38:23 51°16.844 2°51.201 -999 3.304772 32.36058 32.534996
2009-03-26 08:39:23 51°16.824 2°51.264 -999 3.304668 32.360331 32.674292
2009-03-26 08:40:23 51°16.783 2°51.31 -999 3.302286 32.333599 32.186755
2009-03-26 08:41:23 51°16.734 2°51.348 -999 3.303736 32.345838 31.80369
2009-03-26 08:42:23 51°16.685 2°51.375 -999 3.306118 32.367317 31.594746
2009-03-26 08:43:24 51°16.633 2°51.395 -999 3.305186 32.352827 31.838514
2009-03-26 08:44:23 51°16.581 2°51.41 -999 3.304357 32.339464 31.490274
2009-03-26 08:45:23 51°16.528 2°51.416 -999 3.303218 32.321862 31.385802
2009-03-26 08:46:23 51°16.478 2°51.402 -999 3.304564 32.331224 31.420626
2009-03-26 08:47:23 51°16.431 2°51.364 -999 3.30415 32.324111 31.664394
2009-03-26 08:48:23 51°16.378 2°51.329 -999 3.301354 32.291169 32.430523
2009-03-26 08:49:23 51°16.327 2°51.295 -999 3.303218 32.306146 31.873339
2009-03-26 08:50:24 51°16.286 2°51.238 -999 3.301975 32.290928 31.838514
2009-03-26 08:51:23 51°16.262 2°51.166 -999 3.305496 32.329105 32.012635
2009-03-26 08:52:23 51°16.239 2°51.093 -999 3.306739 32.340833 32.186755
2009-03-26 08:53:23 51°16.207 2°51.026 -999 3.306428 32.336591 32.256403
2009-03-26 08:54:23 51°16.168 2°50.965 -999 3.307774 32.349442 31.977811
2009-03-26 08:55:23 51°16.132 2°50.906 -999 3.302182 32.289685 32.848412
2009-03-26 08:56:24 51°16.102 2°50.84 -999 3.306324 32.331975 31.977811
2009-03-26 08:57:23 51°16.08 2°50.769 -999 3.304357 32.310644 32.430523
2009-03-26 08:58:23 51°16.066 2°50.691 -999 3.302286 32.28732 32.709116
2009-03-26 08:59:24 51°16.055 2°50.618 -999 3.300318 32.265121 32.56982
2009-03-26 09:00:23 51°16.058 2°50.548 -999 3.306842 32.338462 32.256403
2009-03-26 09:01:24 51°16.072 2°50.481 -999 3.30591 32.33185 32.848412
2009-03-26 09:02:23 51°16.082 2°50.44 -999 3.307567 32.352438 33.266301
2009-03-26 09:03:23 51°16.089 2°50.413 -999 3.310674 32.387883 33.370773
2009-03-26 09:04:23 51°16.097 2°50.395 -999 3.310674 32.387883 33.335949
2009-03-26 09:05:23 51°16.112 2°50.376 -999 3.309846 32.380646 33.614541
2009-03-26 09:06:23 51°16.146 2°50.366 -999 3.309949 32.381769 33.684189
2009-03-26 09:07:23 51°16.179 2°50.434 -999 3.310985 32.393003 33.475245
2009-03-26 09:08:23 51°16.265 2°50.652 -999 3.310467 32.391761 34.519967
2009-03-26 09:09:23 51°16.386 2°50.873 -999 3.3085 32.378289 33.649365
2009-03-26 09:10:24 51°16.51 2°51.099 -999 3.307982 32.377046 33.196653
2009-03-26 09:11:23 51°16.63 2°51.315 -999 3.306843 32.364684 32.082283
2009-03-26 09:12:23 51°16.751 2°51.542 -999 3.303632 32.319368 31.350978
2009-03-26 09:13:23 51°16.87 2°51.77 -999 3.299282 32.259996 30.724145
2009-03-26 09:14:23 51°16.989 2°51.996 -999 3.289755 32.134183 30.445552
2009-03-26 09:15:23 51°17.108 2°52.22 -999 3.284266 32.065247 30.619673
2009-03-26 09:16:22 51°17.225 2°52.438 -999 3.276499 31.976044 31.977811
2009-03-26 09:17:23 51°17.344 2°52.665 -999 3.265833 31.857278 32.987708
2009-03-26 09:18:23 51°17.462 2°52.888 -999 3.259102 31.782822 32.91806
2009-03-26 09:19:24 51°17.581 2°53.116 -999 3.24533 31.637476 31.559922
2009-03-26 09:20:23 51°17.697 2°53.333 -999 3.236218 31.545048 32.326051
2009-03-26 09:21:24 51°17.816 2°53.557 -999 3.226589 31.445344 33.510069
2009-03-26 09:22:23 51°17.93 2°53.774 -999 3.21085 31.277225 35.216448
2009-03-26 09:23:24 51°18.044 2°53.999 -999 3.19915 31.153585 36.539762
2009-03-26 09:24:24 51°18.158 2°54.219 -999 3.189729 31.053707 35.529864
2009-03-26 09:25:24 51°18.211 2°54.492 -999 3.179272 30.946885 37.758604
2009-03-26 09:26:24 51°18.249 2°54.777 -999 3.17337 30.888315 37.967548
2009-03-26 09:27:24 51°18.29 2°55.058 -999 3.155977 30.706827 36.052225
2009-03-26 09:28:24 51°18.33 2°55.336 -999 3.151629 30.665814 38.350613
2009-03-26 09:29:24 51°18.383 2°55.612 -999 3.149041 30.641261 38.002372
2009-03-26 09:30:24 51°18.446 2°55.879 -999 3.139931 30.549804 37.062123
2009-03-26 09:31:24 51°18.507 2°56.148 -999 3.129475 30.451273 36.121873
2009-03-26 09:32:24 51°18.588 2°56.403 -999 3.122643 30.388421 37.375539
2009-03-26 09:33:24 51°18.678 2°56.653 -999 3.120987 30.374698 37.863076
2009-03-26 09:34:24 51°18.766 2°56.906 -999 3.120365 30.368834 38.594381
2009-03-26 09:35:24 51°18.854 2°57.168 -999 3.121401 30.378334 40.788296
2009-03-26 09:36:24 51°18.945 2°57.418 -999 3.12461 30.40877 41.206185
2009-03-26 09:37:24 51°19.043 2°57.656 -999 3.120262 30.367719 37.967548
2009-03-26 09:38:24 51°19.164 2°57.86 -999 3.118606 30.353994 39.848047
2009-03-26 09:39:24 51°19.301 2°58.039 -999 3.11726 30.339508 41.728546
2009-03-26 09:40:24 51°19.431 2°58.237 -999 3.11726 30.345251 39.499806
2009-03-26 09:41:24 51°19.557 2°58.443 -999 3.119227 30.36889 38.594381
2009-03-26 09:42:24 51°19.687 2°58.65 -999 3.118813 30.366074 37.445187
2009-03-26 09:43:24 51°19.815 2°58.858 -999 3.116535 30.345655 35.181624
2009-03-26 09:44:24 51°19.942 2°59.066 -999 3.117053 30.35205 34.728911
2009-03-26 09:45:24 51°20.071 2°59.282 -999 3.124817 30.430737 37.166595
2009-03-26 09:46:24 51°20.201 2°59.498 -999 3.128544 30.469234 35.564688
2009-03-26 09:47:24 51°20.332 2°59.711 -999 3.126473 30.450225 35.286096
2009-03-26 09:48:24 51°20.464 2°59.926 -999 3.125231 30.437667 35.66916
2009-03-26 09:49:24 51°20.598 3°0.146 -999 3.122229 30.406152 36.261169
2009-03-26 09:50:24 51°20.73 3°0.366 -999 3.126059 30.446588 36.574586
2009-03-26 09:51:24 51°20.861 3°0.588 -999 3.128026 30.47025 36.922826
2009-03-26 09:52:24 51°20.993 3°0.809 -999 3.123161 30.420301 37.166595
2009-03-26 09:53:24 51°21.128 3°1.026 -999 3.122747 30.424894 36.713882
2009-03-26 09:54:24 51°21.263 3°1.244 -999 3.121401 30.430157 36.992474
2009-03-26 09:55:24 51°21.396 3°1.468 -999 3.120677 30.432233 37.410363
2009-03-26 09:56:24 51°21.531 3°1.694 -999 3.120056 30.442853 35.49504
2009-03-26 09:57:24 51°21.663 3°1.917 -999 3.118814 30.442651 33.405597
2009-03-26 09:58:24 51°21.799 3°2.138 -999 3.115915 30.417137 32.987708
2009-03-26 09:59:24 51°21.936 3°2.359 -999 3.116847 30.428846 32.186755
2009-03-26 10:00:24 51°22.075 3°2.582 -999 3.120367 30.466025 32.883236
2009-03-26 10:01:24 51°22.209 3°2.813 -999 3.121919 30.484448 32.500171
2009-03-26 10:02:24 51°22.346 3°3.04 -999 3.121712 30.483039 31.142033
2009-03-26 10:03:24 51°22.481 3°3.272 -999 3.124197 30.510701 31.211682
2009-03-26 10:04:24 51°22.613 3°3.505 -999 3.131754 30.582389 34.728911
2009-03-26 10:05:24 51°22.747 3°3.743 -999 3.136826 30.629714 35.599512
2009-03-26 10:06:24 51°22.881 3°3.983 -999 3.14428 30.700254 36.400466
2009-03-26 10:07:24 51°23.016 3°4.219 -999 3.150906 30.766 37.236243
2009-03-26 10:08:24 51°23.151 3°4.456 -999 3.155772 30.816068 36.504938
2009-03-26 10:09:24 51°23.284 3°4.701 -999 3.164572 30.914522 38.733677
2009-03-26 10:10:24 51°23.417 3°4.946 -999 3.166228 30.943333 39.499806
2009-03-26 10:11:24 51°23.55 3°5.188 -999 3.170887 31.004655 40.649
2009-03-26 10:12:24 51°23.682 3°5.436 -999 3.173683 31.045012 40.335584
2009-03-26 10:13:24 51°23.817 3°5.682 -999 3.175961 31.073888 40.405232
2009-03-26 10:14:24 51°23.954 3°5.927 -999 3.175236 31.067727 39.708751
2009-03-26 10:15:24 51°24.093 3°6.175 -999 3.175029 31.06717 40.196287
2009-03-26 10:16:24 51°24.225 3°6.429 -999 3.180723 31.131382 39.151566
2009-03-26 10:17:24 51°24.354 3°6.675 -999 3.1859 31.196787 38.106844
2009-03-26 10:18:24 51°24.487 3°6.914 -999 3.190352 31.250142 38.037196
2009-03-26 10:19:24 51°24.632 3°7.12 -999 3.196461 31.321495 37.793428
2009-03-26 10:20:24 51°24.783 3°7.315 -999 3.199463 31.359182 37.72378
2009-03-26 10:21:24 51°24.945 3°7.475 -999 3.205262 31.431505 36.78353
2009-03-26 10:22:24 51°25.113 3°7.598 -999 3.210542 31.499978 35.251272
2009-03-26 10:23:24 51°25.284 3°7.71 -999 3.214995 31.560369 34.171726
2009-03-26 10:24:24 51°25.458 3°7.819 -999 3.220483 31.63122 32.952884
2009-03-26 10:25:24 51°25.631 3°7.932 -999 3.22597 31.701275 32.047459
2009-03-26 10:26:24 51°25.804 3°8.041 -999 3.231769 31.774775 31.768866
2009-03-26 10:27:24 51°25.977 3°8.156 -999 3.237257 31.840619 33.057356
2009-03-26 10:28:24 51°26.149 3°8.262 -999 3.241399 31.883146 35.1468
2009-03-26 10:29:24 51°26.308 3°8.264 -999 3.242849 31.898074 36.43529
2009-03-26 10:30:24 51°26.414 3°8.212 -999 3.244195 31.90666 37.236243
2009-03-26 10:31:24 51°26.445 3°8.203 -999 3.245023 31.914817 37.932724
2009-03-26 10:32:24 51°26.448 3°8.227 -999 3.245644 31.917241 36.818354
2009-03-26 10:33:24 51°26.446 3°8.264 -999 3.247404 31.918171 33.997606
2009-03-26 10:34:24 51°26.441 3°8.304 -999 3.246265 31.917927 34.38067
2009-03-26 10:35:24 51°26.434 3°8.347 -999 3.245334 31.912988 35.007503
2009-03-26 10:36:24 51°26.429 3°8.391 -999 3.245126 31.909863 33.997606
2009-03-26 10:37:24 51°26.425 3°8.432 -999 3.244712 31.905351 34.450318
2009-03-26 10:38:24 51°26.429 3°8.466 -999 3.244505 31.903095 33.649365
2009-03-26 10:39:24 51°26.45 3°8.476 -999 3.245333 31.89996 37.445187
2009-03-26 10:40:24 51°26.469 3°8.483 -999 3.243987 31.899192 38.559557
2009-03-26 10:41:24 51°26.483 3°8.496 -999 3.244091 31.899451 38.211316
2009-03-26 10:42:24 51°26.497 3°8.505 -999 3.244091 31.899451 38.629205
2009-03-26 10:43:24 51°26.502 3°8.538 -999 3.244505 31.899621 36.365641
2009-03-26 10:44:24 51°26.502 3°8.58 -999 3.244816 31.89519 35.982577
2009-03-26 10:45:24 51°26.501 3°8.627 -999 3.243677 31.890598 35.042327
2009-03-26 10:46:24 51°26.497 3°8.68 -999 3.243573 31.888602 34.485143
2009-03-26 10:47:24 51°26.492 3°8.731 -999 3.242952 31.884439 36.504938
2009-03-26 10:48:24 51°26.488 3°8.781 -999 3.242641 31.880188 35.32092
2009-03-26 10:49:24 51°26.486 3°8.832 -999 3.242331 31.876805 34.903031
2009-03-26 10:50:24 51°26.486 3°8.884 -999 3.241606 31.868043 33.962782
2009-03-26 10:51:24 51°26.486 3°8.935 -999 3.242538 31.877325 34.589615
2009-03-26 10:52:24 51°26.484 3°8.988 -999 3.242434 31.875329 33.649365
2009-03-26 10:53:24 51°26.483 3°9.042 -999 3.242331 31.871599 31.768866
2009-03-26 10:54:24 51°26.485 3°9.095 -999 3.241709 31.866568 32.639468
2009-03-26 10:55:23 51°26.522 3°9.141 -999 3.241606 31.863706 36.922826
2009-03-26 10:56:24 51°26.543 3°9.257 -999 3.241192 31.860063 38.524733
2009-03-26 10:57:24 51°26.528 3°9.357 -999 3.240467 31.850436 38.733677
2009-03-26 10:58:23 51°26.505 3°9.448 -999 3.239638 31.841417 38.838149
2009-03-26 10:59:24 51°26.469 3°9.542 -999 3.239224 31.836041 37.863076
2009-03-26 11:00:24 51°26.431 3°9.632 -999 3.23881 31.829799 37.340715
2009-03-26 11:01:24 51°26.395 3°9.721 -999 3.238189 31.824767 38.280964
2009-03-26 11:02:24 51°26.366 3°9.813 -999 3.237257 31.815488 37.166595
2009-03-26 11:03:23 51°26.338 3°9.903 -999 3.237464 31.816876 38.24614
2009-03-26 11:04:24 51°26.308 3°9.995 -999 3.236739 31.80812 37.758604
2009-03-26 11:05:24 51°26.279 3°10.084 -999 3.236843 31.809247 38.629205
2009-03-26 11:06:24 51°26.248 3°10.171 -999 3.236635 31.806993 39.430158
2009-03-26 11:07:24 51°26.216 3°10.254 -999 3.235497 31.79719 39.569454
2009-03-26 11:08:24 51°26.182 3°10.334 -999 3.236221 31.804215 39.256038
2009-03-26 11:09:24 51°26.152 3°10.417 -999 3.235393 31.796928 39.36051
2009-03-26 11:10:23 51°26.12 3°10.497 -999 3.235393 31.796063 39.290862
2009-03-26 11:11:24 51°26.088 3°10.579 -999 3.234358 31.784791 38.872973
2009-03-26 11:12:24 51°26.056 3°10.655 -999 3.234772 31.791895 38.524733
2009-03-26 11:13:24 51°26.025 3°10.735 -999 3.233426 31.778106 38.420261
2009-03-26 11:14:23 51°25.995 3°10.818 -999 3.233943 31.783742 38.280964
2009-03-26 11:15:24 51°25.969 3°10.901 -999 3.233426 31.780701 38.977445
2009-03-26 11:16:24 51°25.947 3°10.98 -999 3.233115 31.774725 37.062123
2009-03-26 11:17:24 51°25.92 3°11.051 -999 3.23208 31.766047 38.07202
2009-03-26 11:18:24 51°25.88 3°11.113 -999 3.232804 31.772208 37.793428
2009-03-26 11:19:24 51°25.784 3°11.173 -999 3.232908 31.77247 37.201419
2009-03-26 11:20:26 51°25.602 3°11.239 -999 3.233322 31.770925 37.410363
2009-03-26 11:21:24 51°25.428 3°11.385 -999 3.233011 31.768409 36.504938
2009-03-26 11:22:24 51°25.254 3°11.568 -999 3.234772 31.785839 35.286096
2009-03-26 11:23:24 51°25.095 3°11.799 -999 3.233736 31.774569 34.519967
2009-03-26 11:24:24 51°24.957 3°12.076 -999 3.228766 31.715301 33.579717
2009-03-26 11:25:24 51°24.815 3°12.356 -999 3.221104 31.619049 33.788661
2009-03-26 11:26:23 51°24.679 3°12.638 -999 3.206297 31.43933 36.400466
2009-03-26 11:27:23 51°24.542 3°12.932 -999 3.180516 31.129139 36.504938
2009-03-26 11:28:23 51°24.405 3°13.232 -999 3.151734 30.803331 34.554791
2009-03-26 11:29:23 51°24.268 3°13.538 -999 3.1243 30.491966 29.923192
2009-03-26 11:30:24 51°24.138 3°13.863 -999 3.116329 30.404288 29.261534
2009-03-26 11:31:24 51°24.009 3°14.171 -999 3.115294 30.395591 31.420626
2009-03-26 11:32:24 51°23.882 3°14.481 -999 3.110843 30.360734 29.609775
2009-03-26 11:33:24 51°23.754 3°14.803 -999 3.107323 30.316995 29.331183
2009-03-26 11:34:24 51°23.626 3°15.122 -999 3.100387 30.229883 30.619673
2009-03-26 11:35:24 51°23.509 3°15.461 -999 3.097178 30.187925 29.540127
2009-03-26 11:36:23 51°23.406 3°15.806 -999 3.090657 30.107051 30.480376
2009-03-26 11:37:23 51°23.325 3°16.177 -999 3.085481 30.047249 31.838514
2009-03-26 11:38:23 51°23.248 3°16.548 -999 3.082168 30.010779 33.823486
2009-03-26 11:39:23 51°23.161 3°16.915 -999 3.079063 29.973298 34.20655
2009-03-26 11:40:24 51°23.073 3°17.281 -999 3.076372 29.941098 35.982577
2009-03-26 11:41:24 51°22.988 3°17.637 -999 3.074819 29.924395 36.95765
2009-03-26 11:42:24 51°22.908 3°17.978 -999 3.068298 29.848601 37.584483
2009-03-26 11:43:24 51°22.819 3°18.269 -999 3.049977 29.629253 35.425392
2009-03-26 11:44:24 51°22.739 3°18.443 -999 3.029069 29.388248 35.49504
2009-03-26 11:45:24 51°22.685 3°18.569 -999 3.016235 29.243631 35.808457
2009-03-26 11:46:23 51°22.639 3°18.67 -999 3.011681 29.190928 35.773633
2009-03-26 11:47:23 51°22.624 3°18.786 -999 3.00692 29.138397 36.191521
2009-03-26 11:48:23 51°22.631 3°18.915 -999 3.00692 29.13761 36.156697
2009-03-26 11:49:23 51°22.663 3°19.046 -999 3.004436 29.110245 36.43529
2009-03-26 11:50:24 51°22.711 3°19.143 -999 3.002573 29.088742 36.470114
2009-03-26 11:51:24 51°22.74 3°19.221 -999 3.00692 29.136037 36.470114
2009-03-26 11:52:24 51°22.762 3°19.293 -999 3.010335 29.156839 35.982577
2009-03-26 11:53:24 51°22.781 3°19.367 -999 3.012509 29.157267 35.703984
2009-03-26 11:54:24 51°22.798 3°19.45 -999 3.012716 29.189393 36.191521
2009-03-26 11:55:24 51°22.809 3°19.536 -999 3.011371 29.178148 34.972679
2009-03-26 11:56:23 51°22.819 3°19.619 -999 3.011991 29.182429 34.345846
2009-03-26 11:57:23 51°22.829 3°19.7 -999 3.011785 29.184942 35.181624
2009-03-26 11:58:23 51°22.842 3°19.781 -999 3.013026 29.196657 34.937855
2009-03-26 11:59:23 51°22.858 3°19.862 -999 3.013544 29.203772 35.007503
2009-03-26 12:00:24 51°22.874 3°19.941 -999 3.012509 29.18639 34.519967
2009-03-26 12:01:24 51°22.887 3°20.022 -999 3.014372 29.211845 34.868207
2009-03-26 12:02:24 51°22.901 3°20.107 -999 3.014372 29.210268 34.798559
2009-03-26 12:03:24 51°22.914 3°20.19 -999 3.014786 29.217065 35.077151
2009-03-26 12:04:24 51°22.928 3°20.272 -999 3.014165 29.211207 34.589615
2009-03-26 12:05:23 51°22.962 3°20.327 -999 3.014165 29.210419 35.1468
2009-03-26 12:06:23 51°22.964 3°20.291 -999 3.014268 29.212315 36.017401
2009-03-26 12:07:23 51°22.934 3°20.161 -999 3.011164 29.175145 35.738808
2009-03-26 12:08:23 51°22.892 3°19.995 -999 3.00868 29.152503 35.878105
2009-03-26 12:09:24 51°22.843 3°19.809 -999 3.007334 29.135746 34.972679
2009-03-26 12:10:23 51°22.787 3°19.631 -999 3.008162 29.146178 35.460216
2009-03-26 12:11:24 51°22.733 3°19.442 -999 3.013234 29.202026 35.390568
2009-03-26 12:12:24 51°22.704 3°19.249 -999 3.01489 29.227644 36.261169
2009-03-26 12:13:24 51°22.691 3°19.052 -999 3.028034 29.376362 36.330817
2009-03-26 12:14:24 51°22.677 3°18.912 -999 3.043042 29.546036 36.226345
2009-03-26 12:15:23 51°22.696 3°18.868 -999 3.046458 29.58908 36.748706
2009-03-26 12:16:23 51°22.714 3°18.872 -999 3.048217 29.611967 36.60941
2009-03-26 12:17:23 51°22.732 3°18.891 -999 3.049459 29.626902 36.365641
2009-03-26 12:18:23 51°22.752 3°18.919 -999 3.049459 29.627703 36.78353
2009-03-26 12:19:24 51°22.77 3°18.938 -999 3.050908 29.64326 36.261169
2009-03-26 12:20:24 51°22.782 3°18.955 -999 3.050598 29.639125 36.470114
2009-03-26 12:21:24 51°22.795 3°18.969 -999 3.052151 29.656596 36.052225
2009-03-26 12:22:24 51°22.815 3°18.978 -999 3.054221 29.678824 35.738808
2009-03-26 12:23:24 51°22.839 3°18.978 -999 3.051944 29.657582 36.156697
2009-03-26 12:24:24 51°22.867 3°18.961 -999 3.055463 29.696177 36.087049
2009-03-26 12:25:24 51°22.901 3°18.798 -999 3.056291 29.705071 36.330817
2009-03-26 12:26:24 51°22.906 3°18.557 -999 3.060742 29.752074 35.808457
2009-03-26 12:27:24 51°22.909 3°18.306 -999 3.063743 29.785934 35.529864
2009-03-26 12:28:23 51°22.915 3°18.058 -999 3.068401 29.843252 35.564688
2009-03-26 12:29:23 51°22.92 3°17.808 -999 3.078442 29.959315 34.903031
2009-03-26 12:30:23 51°22.927 3°17.566 -999 3.087137 30.05694 33.823486
2009-03-26 12:31:23 51°22.932 3°17.325 -999 3.090243 30.096071 33.301125
2009-03-26 12:32:24 51°22.937 3°17.075 -999 3.091381 30.113224 35.111976
2009-03-26 12:33:24 51°22.941 3°16.841 -999 3.095211 30.157742 34.485143
2009-03-26 12:34:24 51°22.945 3°16.6 -999 3.097385 30.182796 34.485143
2009-03-26 12:35:24 51°22.95 3°16.36 -999 3.099456 30.208376 34.554791
2009-03-26 12:36:24 51°22.944 3°16.123 -999 3.101319 30.230914 34.38067
2009-03-26 12:37:23 51°22.937 3°15.889 -999 3.103493 30.255985 34.624439
2009-03-26 12:38:23 51°22.93 3°15.655 -999 3.105149 30.27384 33.85831
2009-03-26 12:39:23 51°22.923 3°15.423 -999 3.106081 30.283884 33.788661
2009-03-26 12:40:23 51°22.904 3°15.197 -999 3.106598 30.287003 33.719013
2009-03-26 12:41:23 51°22.879 3°14.973 -999 3.104735 30.263636 35.1468
2009-03-26 12:42:24 51°22.854 3°14.749 -999 3.102043 30.232171 36.017401
2009-03-26 12:43:24 51°22.83 3°14.521 -999 3.098213 30.188447 36.60941
2009-03-26 12:44:24 51°22.806 3°14.292 -999 3.095108 30.154176 36.470114
2009-03-26 12:45:24 51°22.784 3°14.07 -999 3.092727 30.125268 36.470114
2009-03-26 12:46:24 51°22.761 3°13.845 -999 3.091795 30.115236 36.574586
2009-03-26 12:47:23 51°22.74 3°13.632 -999 3.091381 30.109962 36.922826
2009-03-26 12:48:24 51°22.718 3°13.395 -999 3.091485 30.111892 37.236243
2009-03-26 12:49:24 51°22.697 3°13.16 -999 3.091588 30.111375 37.828252
2009-03-26 12:50:24 51°22.675 3°12.924 -999 3.091485 30.115154 38.455085
2009-03-26 12:51:24 51°22.653 3°12.69 -999 3.091278 30.110478 38.280964
2009-03-26 12:52:24 51°22.633 3°12.452 -999 3.09666 30.160283 37.131771
2009-03-26 12:53:24 51°22.608 3°12.221 -999 3.098834 30.183693 37.271067
2009-03-26 12:54:24 51°22.573 3°12.007 -999 3.099041 30.184288 37.758604
2009-03-26 12:55:24 51°22.541 3°11.807 -999 3.099352 30.172929 35.912929
2009-03-26 12:56:24 51°22.537 3°11.739 -999 3.098109 30.153847 35.878105
2009-03-26 12:57:24 51°22.547 3°11.74 -999 3.097902 30.149988 35.66916
2009-03-26 12:58:24 51°22.56 3°11.755 -999 3.098523 30.159119 35.912929
2009-03-26 12:59:24 51°22.573 3°11.774 -999 3.099869 30.176051 36.330817
2009-03-26 13:00:24 51°22.587 3°11.795 -999 3.099973 30.180431 36.60941
2009-03-26 13:01:24 51°22.6 3°11.816 -999 3.100697 30.191499 37.480011
2009-03-26 13:02:24 51°22.61 3°11.836 -999 3.102043 30.206806 37.062123
2009-03-26 13:03:24 51°22.619 3°11.852 -999 3.102043 30.208441 36.60941
2009-03-26 13:04:24 51°22.628 3°11.863 -999 3.101526 30.204503 36.748706
2009-03-26 13:05:24 51°22.637 3°11.877 -999 3.100904 30.201084 37.236243
2009-03-26 13:06:24 51°22.649 3°11.89 -999 3.10018 30.197369 37.584483
2009-03-26 13:07:24 51°22.658 3°11.906 -999 3.099662 30.193429 38.455085
2009-03-26 13:08:24 51°22.669 3°11.922 -999 3.099041 30.188375 38.280964
2009-03-26 13:09:24 51°22.68 3°11.938 -999 3.099041 30.189192 38.559557
2009-03-26 13:10:24 51°22.689 3°11.943 -999 3.098938 30.188895 38.872973
2009-03-26 13:11:24 51°22.753 3°11.902 -999 3.098524 30.186069 39.464982
2009-03-26 13:12:24 51°22.88 3°11.805 -999 3.098524 30.18934 38.002372
2009-03-26 13:13:25 51°23.025 3°11.671 -999 3.102871 30.237819 35.738808
2009-03-26 13:14:24 51°23.177 3°11.533 -999 3.109186 30.308335 33.579717
2009-03-26 13:15:24 51°23.336 3°11.379 -999 3.112085 30.340403 34.763735
2009-03-26 13:16:24 51°23.492 3°11.229 -999 3.112913 30.352621 34.868207
2009-03-26 13:17:25 51°23.653 3°11.079 -999 3.11519 30.378003 33.544893
2009-03-26 13:18:26 51°23.808 3°10.93 -999 3.111878 30.343103 32.639468
2009-03-26 13:19:24 51°23.962 3°10.782 -999 3.114362 30.371541 32.848412
2009-03-26 13:20:24 51°24.123 3°10.625 -999 3.134652 30.576388 37.793428
2009-03-26 13:21:24 51°24.286 3°10.469 -999 3.149767 30.720398 39.116742
2009-03-26 13:22:24 51°24.45 3°10.313 -999 3.159705 30.826004 39.395334
2009-03-26 13:23:25 51°24.594 3°10.13 -999 3.180722 31.064775 40.30076
2009-03-26 13:24:25 51°24.689 3°9.901 -999 3.189316 31.168664 40.892768
2009-03-26 13:25:24 51°24.779 3°9.68 -999 3.195942 31.244594 39.952519
2009-03-26 13:26:24 51°24.87 3°9.454 -999 3.190662 31.190831 39.639103
2009-03-26 13:27:24 51°24.965 3°9.226 -999 3.200602 31.301813 39.256038
2009-03-26 13:28:24 51°25.063 3°8.999 -999 3.205779 31.362976 39.569454
2009-03-26 13:29:24 51°25.158 3°8.78 -999 3.218307 31.532924 37.932724
2009-03-26 13:30:24 51°25.239 3°8.554 -999 3.231976 31.747635 37.166595
2009-03-26 13:31:24 51°25.344 3°8.344 -999 3.231458 31.761877 38.141668
2009-03-26 13:32:24 51°25.484 3°8.158 -999 3.239535 31.868045 37.096947
2009-03-26 13:33:24 51°25.627 3°7.968 -999 3.242538 31.918163 36.017401
2009-03-26 13:34:24 51°25.769 3°7.781 -999 3.245955 31.961528 37.166595
2009-03-26 13:35:27 51°25.917 3°7.587 -999 3.247094 31.98093 36.748706
2009-03-26 13:36:28 51°26.056 3°7.412 -999 3.244195 31.965859 36.295993
2009-03-26 13:37:28 51°26.19 3°7.24 -999 3.240468 31.930398 35.66916
2009-03-26 13:38:27 51°26.322 3°7.057 -999 3.247923 32.018787 33.85831
2009-03-26 13:39:26 51°26.456 3°6.866 -999 3.249269 32.036114 34.485143
2009-03-26 13:40:25 51°26.591 3°6.67 -999 3.249684 32.040639 33.614541
2009-03-26 13:41:27 51°26.736 3°6.472 -999 3.250823 32.059209 33.544893
2009-03-26 13:42:27 51°26.873 3°6.278 -999 3.249062 32.046101 33.579717
2009-03-26 13:43:27 51°27.01 3°6.081 -999 3.250512 32.063695 33.893134
2009-03-26 13:44:28 51°27.15 3°5.882 -999 3.252997 32.090858 34.067254
2009-03-26 13:45:27 51°27.287 3°5.684 -999 3.253722 32.101412 34.067254
2009-03-26 13:46:28 51°27.424 3°5.493 -999 3.252272 32.088194 34.03243
2009-03-26 13:47:28 51°27.549 3°5.304 -999 3.258589 32.16253 33.85831
2009-03-26 13:48:27 51°27.66 3°5.088 -999 3.250098 32.074939 35.111976
2009-03-26 13:49:27 51°27.772 3°4.855 -999 3.259521 32.177999 36.922826
2009-03-26 13:50:27 51°27.886 3°4.645 -999 3.264284 32.223948 38.07202
2009-03-26 13:51:27 51°28.003 3°4.418 -999 3.263974 32.213507 37.236243
2009-03-26 13:52:28 51°28.105 3°4.189 -999 3.264698 32.212635 35.564688
2009-03-26 13:53:26 51°28.179 3°3.958 -999 3.250408 32.048557 32.186755
2009-03-26 13:54:28 51°28.257 3°3.734 -999 3.258382 32.133046 32.674292
2009-03-26 13:55:26 51°28.313 3°3.642 -999 3.261799 32.167756 32.082283
2009-03-26 13:56:24 51°28.352 3°3.595 -999 3.271015 32.283479 32.291227
2009-03-26 13:57:24 51°28.324 3°3.526 -999 3.275986 32.352878 31.664394
2009-03-26 13:58:24 51°28.249 3°3.452 -999 3.27029 32.283486 32.117107
2009-03-26 13:59:25 51°28.201 3°3.373 -999 3.273915 32.311666 31.977811
2009-03-26 14:00:24 51°28.12 3°3.223 -999 3.272465 32.288754 32.56982
2009-03-26 14:01:24 51°28.024 3°3.053 -999 3.269047 32.241705 32.56982
2009-03-26 14:02:26 51°27.934 3°2.894 -999 3.272258 32.26975 33.405597
2009-03-26 14:03:27 51°27.848 3°2.745 -999 3.269876 32.236683 32.534996
2009-03-26 14:04:26 51°27.758 3°2.58 -999 3.266665 32.194585 34.067254
2009-03-26 14:05:24 51°27.654 3°2.433 -999 3.261488 32.128404 34.38067
2009-03-26 14:06:25 51°27.529 3°2.322 -999 3.263041 32.136598 35.599512
2009-03-26 14:07:24 51°27.392 3°2.237 -999 3.26128 32.105136 37.72378
2009-03-26 14:08:24 51°27.255 3°2.156 -999 3.260659 32.084373 38.838149
2009-03-26 14:09:25 51°27.117 3°2.069 -999 3.260452 32.073381 40.056991
2009-03-26 14:10:26 51°26.989 3°1.985 -999 3.257035 32.046604 40.47488
2009-03-26 14:11:28 51°26.853 3°1.926 -999 3.255688 32.015364 40.126639
2009-03-26 14:12:26 51°26.715 3°1.867 -999 3.257138 32.015475 40.405232
2009-03-26 14:13:28 51°26.574 3°1.808 -999 3.254238 31.966509 40.683824
2009-03-26 14:14:28 51°26.44 3°1.734 -999 3.251339 31.911532 40.892768
2009-03-26 14:15:27 51°26.314 3°1.641 -999 3.248543 31.858632 40.962417
2009-03-26 14:16:27 51°26.186 3°1.546 -999 3.246264 31.83129 41.58925
2009-03-26 14:17:27 51°26.056 3°1.452 -999 3.247093 31.824743 42.181258
2009-03-26 14:18:28 51°25.935 3°1.369 -999 3.248646 31.828658 42.390203
2009-03-26 14:19:28 51°25.81 3°1.278 -999 3.250717 31.840779 42.494675
2009-03-26 14:20:28 51°25.682 3°1.183 -999 3.25051 31.848027 40.962417
2009-03-26 14:21:28 51°25.558 3°1.089 -999 3.250406 31.860724 39.952519
2009-03-26 14:22:28 51°25.429 3°0.995 -999 3.251442 31.871105 39.256038
2009-03-26 14:23:28 51°25.312 3°0.91 -999 3.253616 31.897317 37.967548
2009-03-26 14:24:25 51°25.178 3°0.815 -999 3.25372 31.898442 38.455085
2009-03-26 14:25:24 51°25.036 3°0.722 -999 3.252684 31.883735 38.594381
2009-03-26 14:26:26 51°24.886 3°0.636 -999 3.253098 31.887369 38.455085
2009-03-26 14:27:24 51°24.747 3°0.548 -999 3.254755 31.910556 38.07202
2009-03-26 14:28:27 51°24.601 3°0.467 -999 3.25838 31.952529 37.236243
2009-03-26 14:29:28 51°24.463 3°0.383 -999 3.259312 31.966125 37.096947
2009-03-26 14:30:28 51°24.319 3°0.299 -999 3.262625 32.00648 36.261169
2009-03-26 14:31:27 51°24.181 3°0.215 -999 3.263972 32.024591 36.052225
2009-03-26 14:32:27 51°24.044 3°0.133 -999 3.266043 32.048848 35.564688
2009-03-26 14:33:26 51°23.902 3°0.046 -999 3.267285 32.068454 36.087049
2009-03-26 14:34:24 51°23.758 2°59.958 -999 3.269149 32.092214 35.599512
2009-03-26 14:35:25 51°23.607 2°59.871 -999 3.271324 32.119361 35.982577
2009-03-26 14:36:24 51°23.464 2°59.787 -999 3.272877 32.134518 35.912929
2009-03-26 14:37:24 51°23.322 2°59.707 -999 3.27443 32.137458 36.644234
2009-03-26 14:38:25 51°23.179 2°59.601 -999 3.27267 32.086958 37.828252
2009-03-26 14:39:25 51°23.04 2°59.495 -999 3.274533 32.058541 36.191521
2009-03-26 14:40:25 51°22.909 2°59.395 -999 3.27505 32.03208 35.286096
2009-03-26 14:41:25 51°22.775 2°59.289 -999 3.276086 32.02339 34.589615
2009-03-26 14:42:25 51°22.638 2°59.185 -999 3.272875 31.981705 35.982577
2009-03-26 14:43:25 51°22.499 2°59.072 -999 3.275361 32.002568 35.181624
2009-03-26 14:44:26 51°22.367 2°58.95 -999 3.280642 32.047644 34.241374
2009-03-26 14:45:26 51°22.246 2°58.824 -999 3.280953 32.045817 34.20655
2009-03-26 14:46:25 51°22.132 2°58.67 -999 3.282713 32.059683 33.893134
2009-03-26 14:47:26 51°22.026 2°58.495 -999 3.281988 32.048377 33.753837
2009-03-26 14:48:25 51°21.933 2°58.312 -999 3.283231 32.062691 34.415494
2009-03-26 14:49:25 51°21.84 2°58.117 -999 3.28582 32.089848 34.345846
2009-03-26 14:50:25 51°21.744 2°57.922 -999 3.288201 32.116498 34.450318
2009-03-26 14:51:26 51°21.646 2°57.736 -999 3.297936 32.221038 34.102078
2009-03-26 14:52:25 51°21.555 2°57.551 -999 3.304771 32.295076 33.544893
2009-03-26 14:53:27 51°21.447 2°57.372 -999 3.30591 32.302188 33.544893
2009-03-26 14:54:27 51°21.316 2°57.268 -999 3.309638 32.343451 33.753837
2009-03-26 14:55:25 51°21.183 2°57.168 -999 3.312124 32.36689 33.927958
2009-03-26 14:56:27 51°21.033 2°57.049 -999 3.31202 32.367514 34.868207
2009-03-26 14:57:25 51°20.898 2°56.933 -999 3.314506 32.394448 34.415494
2009-03-26 14:58:25 51°20.76 2°56.805 -999 3.315852 32.40554 33.753837
2009-03-26 14:59:25 51°20.621 2°56.681 -999 3.313884 32.384219 34.067254
2009-03-26 15:00:25 51°20.481 2°56.559 -999 3.31813 32.422359 33.579717
2009-03-26 15:01:25 51°20.338 2°56.434 -999 3.321341 32.45452 34.728911
2009-03-26 15:02:25 51°20.213 2°56.276 -999 3.33615 32.564112 34.241374
2009-03-26 15:03:26 51°20.092 2°56.115 -999 3.349303 32.650291 34.03243
2009-03-26 15:04:25 51°19.97 2°55.954 -999 3.355206 32.685152 33.335949
2009-03-26 15:05:27 51°19.844 2°55.793 -999 3.357484 32.70012 32.987708
2009-03-26 15:06:26 51°19.722 2°55.638 -999 3.356863 32.703061 33.893134
2009-03-26 15:07:25 51°19.613 2°55.464 -999 3.354585 32.693359 34.450318
2009-03-26 15:08:26 51°19.526 2°55.246 -999 3.354585 32.699507 35.286096
2009-03-26 15:09:25 51°19.452 2°55.016 -999 3.353653 32.704366 36.295993
2009-03-26 15:10:27 51°19.379 2°54.802 -999 3.352824 32.704194 37.340715
2009-03-26 15:11:28 51°19.305 2°54.589 -999 3.354171 32.724923 37.584483
2009-03-26 15:12:28 51°19.234 2°54.395 -999 3.356864 32.744384 36.504938
2009-03-26 15:13:28 51°19.161 2°54.191 -999 3.360385 32.769278 35.878105
2009-03-26 15:14:28 51°19.092 2°54.001 -999 3.363492 32.789679 35.1468
2009-03-26 15:15:27 51°19.016 2°53.794 -999 3.370742 32.833711 32.047459
2009-03-26 15:16:28 51°18.925 2°53.591 -999 3.376127 32.865474 30.584849
2009-03-26 15:17:28 51°18.828 2°53.41 -999 3.379856 32.888122 30.201784
2009-03-26 15:18:26 51°18.722 2°53.241 -999 3.38576 32.922771 30.132136
2009-03-26 15:19:27 51°18.612 2°53.079 -999 3.405335 33.034207 22.993205
2009-03-26 15:20:28 51°18.489 2°52.935 -999 3.412275 33.06484 22.122603
2009-03-26 15:21:28 51°18.368 2°52.78 -999 3.411239 33.050176 22.192252
2009-03-26 15:22:27 51°18.239 2°52.645 -999 3.409789 33.03458 22.540492
2009-03-26 15:23:27 51°18.105 2°52.535 -999 3.415796 33.064849 20.276929
2009-03-26 15:24:25 51°17.963 2°52.433 -999 3.4188 33.079529 19.789392
2009-03-26 15:25:25 51°17.819 2°52.33 -999 3.419007 33.079115 19.963512
2009-03-26 15:26:24 51°17.668 2°52.28 -999 3.417557 33.066177 19.754568
2009-03-26 15:27:25 51°17.494 2°52.308 -999 3.410099 33.002758 21.495771
2009-03-26 15:28:25 51°17.322 2°52.349 -999 3.405334 32.96912 22.61014
2009-03-26 15:29:25 51°17.15 2°52.39 -999 3.403781 32.955055 22.575316
2009-03-26 15:30:25 51°16.981 2°52.468 -999 3.40088 32.925642 23.132501
2009-03-26 15:31:25 51°16.814 2°52.564 -999 3.390626 32.835586 25.396065
2009-03-26 15:32:25 51°16.65 2°52.691 -999 3.383997 32.753881 24.629935
2009-03-26 15:33:25 51°16.486 2°52.824 -999 3.395908 32.799746 19.963512
2009-03-26 15:34:25 51°16.322 2°52.955 -999 3.41538 32.938594 16.933819
2009-03-26 15:35:25 51°16.153 2°53.056 -999 3.418798 32.941149 15.958746
2009-03-26 15:36:25 51°15.983 2°53.161 -999 3.406472 32.824979 16.759699
2009-03-26 15:37:25 51°15.811 2°53.263 -999 3.391349 32.690127 18.152661
2009-03-26 15:38:24 51°15.639 2°53.363 -999 3.385031 32.620821 18.535726
2009-03-26 15:39:25 51°15.464 2°53.469 -999 3.394871 32.694873 17.142764
2009-03-26 15:40:25 51°15.291 2°53.568 -999 3.42408 32.93229 14.8792
2009-03-26 15:41:25 51°15.125 2°53.697 -999 3.446973 33.11563 13.764831
2009-03-26 15:42:25 51°14.969 2°53.856 -999 3.464584 33.268508 12.859405
2009-03-26 15:43:25 51°14.832 2°54.059 -999 3.472975 33.341342 12.511165
2009-03-26 15:44:25 51°14.718 2°54.31 -999 3.47629 33.369673 12.058452
2009-03-26 15:45:25 51°14.601 2°54.554 -999 3.459196 33.190959 12.963877
2009-03-26 15:46:25 51°14.492 2°54.807 -999 3.426773 32.868173 17.421356
2009-03-26 15:47:25 51°14.384 2°55.034 -999 3.412478 32.72204 18.500902
2009-03-26 15:48:25 51°14.283 2°55.23 -999 3.386376 32.465763 22.923557
2009-03-26 15:49:29 51°14.172 2°55.368 -999 3.300621 31.636998 27.624804
2009-03-26 15:50:29 51°14.046 2°55.47 -999 0.092844 0.691508 -0.721976
2009-03-26 15:51:29 51°13.917 2°55.567 -999 0.08286 0.613992 -0.791624
2009-03-26 15:52:29 51°13.804 2°55.656 -999 0.085433 0.633872 -0.826448
2009-03-26 15:53:29 51°13.722 2°55.774 -999 0.090785 0.675253 -0.826448
2009-03-26 15:54:29 51°13.675 2°55.88 -999 0.120735 0.909552 -0.826448
2009-03-26 15:55:29 51°13.664 2°55.954 -999 0.104885 0.784308 -0.826448